createdAt,value
2022-12-17T00:01:05.900Z,55.49
2022-12-17T00:03:52.612Z,54.92
2022-12-17T00:06:38.835Z,54.73
2022-12-17T00:09:24.615Z,55.07
2022-12-17T00:12:10.517Z,54.27
2022-12-17T00:14:57.636Z,55.01
2022-12-17T00:17:43.471Z,54.98
2022-12-17T00:20:29.396Z,55.06
2022-12-17T00:23:19.282Z,54.73
2022-12-17T00:26:09.633Z,54.70
2022-12-17T00:28:55.585Z,55.28
2022-12-17T00:31:45.851Z,54.70
2022-12-17T00:34:31.762Z,56.02
2022-12-17T00:37:18.032Z,54.51
2022-12-17T00:40:04.210Z,54.26
2022-12-17T00:42:50.023Z,55.05
2022-12-17T00:45:35.296Z,54.50
2022-12-17T00:48:22.400Z,54.75
2022-12-17T00:51:08.345Z,54.62
2022-12-17T00:53:56.606Z,55.43
2022-12-17T00:56:43.769Z,55.24
2022-12-17T00:59:29.243Z,55.12
2022-12-17T01:02:15.024Z,55.12
2022-12-17T01:05:10.676Z,54.02
2022-12-17T01:07:56.641Z,54.96
2022-12-17T01:10:42.724Z,54.70
2022-12-17T01:13:32.137Z,54.13
2022-12-17T01:16:23.019Z,55.04
2022-12-17T01:19:08.844Z,53.58
2022-12-17T01:21:55.992Z,53.91
2022-12-17T01:24:42.477Z,54.27
2022-12-17T01:27:28.245Z,53.87
2022-12-17T01:30:13.925Z,53.56
2022-12-17T01:33:00.668Z,54.52
2022-12-17T01:35:47.049Z,54.57
2022-12-17T01:38:37.739Z,54.62
2022-12-17T01:41:24.953Z,54.36
2022-12-17T01:44:10.697Z,54.65
2022-12-17T01:47:00.339Z,54.74
2022-12-17T01:49:47.537Z,54.53
2022-12-17T01:52:35.766Z,54.54
2022-12-17T01:55:26.503Z,53.96
2022-12-17T01:58:12.969Z,54.09
2022-12-17T02:00:58.623Z,53.28
2022-12-17T02:03:53.606Z,53.45
2022-12-17T02:06:44.693Z,54.06
2022-12-17T02:09:38.225Z,53.91
2022-12-17T02:12:33.230Z,53.44
2022-12-17T02:15:29.239Z,53.83
2022-12-17T02:18:21.221Z,53.37
2022-12-17T02:21:09.951Z,53.69
2022-12-17T02:24:05.736Z,52.99
2022-12-17T02:26:55.786Z,53.97
2022-12-17T02:29:45.795Z,54.41
2022-12-17T02:32:34.034Z,53.83
2022-12-17T02:35:23.228Z,53.45
2022-12-17T02:38:17.766Z,53.75
2022-12-17T02:41:06.838Z,54.12
2022-12-17T02:43:54.526Z,53.39
2022-12-17T02:46:41.069Z,53.23
2022-12-17T02:49:26.872Z,52.94
2022-12-17T02:52:14.127Z,52.54
2022-12-17T02:54:59.889Z,52.89
2022-12-17T02:57:50.868Z,52.57
2022-12-17T03:00:41.603Z,53.57
2022-12-17T03:03:27.836Z,53.24
2022-12-17T03:06:13.659Z,53.01
2022-12-17T03:08:59.350Z,53.38
2022-12-17T03:11:47.774Z,53.27
2022-12-17T03:14:33.639Z,52.54
2022-12-17T03:17:20.744Z,52.65
2022-12-17T03:20:06.420Z,52.47
2022-12-17T03:22:52.100Z,52.31
2022-12-17T03:25:38.297Z,52.67
2022-12-17T03:28:26.065Z,52.71
2022-12-17T03:31:11.808Z,52.43
2022-12-17T03:33:58.924Z,53.29
2022-12-17T03:36:44.554Z,52.51
2022-12-17T03:39:41.756Z,52.62
2022-12-17T03:42:27.696Z,53.20
2022-12-17T03:45:13.325Z,52.87
2022-12-17T03:47:59.154Z,52.90
2022-12-17T03:50:46.659Z,52.82
2022-12-17T03:53:32.619Z,52.82
2022-12-17T03:56:18.766Z,53.03
2022-12-17T03:59:04.424Z,53.36
2022-12-17T04:01:50.400Z,53.18
2022-12-17T04:04:36.219Z,53.18
2022-12-17T04:07:23.274Z,53.12
2022-12-17T04:10:08.925Z,53.15
2022-12-17T04:12:54.658Z,53.12
2022-12-17T04:15:40.267Z,53.00
2022-12-17T04:18:25.830Z,53.50
2022-12-17T04:21:11.496Z,53.33
2022-12-17T04:24:09.975Z,53.28
2022-12-17T04:26:56.686Z,52.89
2022-12-17T04:29:42.311Z,52.84
2022-12-17T04:32:32.313Z,52.66
2022-12-17T04:35:20.727Z,52.96
2022-12-17T04:38:06.576Z,53.38
2022-12-17T04:40:53.527Z,53.43
2022-12-17T04:43:39.368Z,53.04
2022-12-17T04:46:25.605Z,52.42
2022-12-17T04:49:11.154Z,52.06
2022-12-17T04:51:57.273Z,52.16
2022-12-17T04:54:45.616Z,52.02
2022-12-17T04:57:32.817Z,52.42
2022-12-17T05:00:18.478Z,52.54
2022-12-17T05:03:04.211Z,52.64
2022-12-17T05:05:49.905Z,52.28
2022-12-17T05:08:41.104Z,52.17
2022-12-17T05:11:27.366Z,52.28
2022-12-17T05:14:14.299Z,53.11
2022-12-17T05:16:59.960Z,52.55
2022-12-17T05:19:45.784Z,52.26
2022-12-17T05:22:31.376Z,52.09
2022-12-17T05:25:17.243Z,51.86
2022-12-17T05:28:05.290Z,52.19
2022-12-17T05:30:52.532Z,52.18
2022-12-17T05:33:39.006Z,52.69
2022-12-17T05:36:26.042Z,52.27
2022-12-17T05:39:11.771Z,52.32
2022-12-17T05:41:57.644Z,52.52
2022-12-17T05:44:43.179Z,52.37
2022-12-17T05:47:26.558Z,51.98
2022-12-17T05:50:12.937Z,51.64
2022-12-17T05:52:58.416Z,51.92
2022-12-17T05:55:44.168Z,51.84
2022-12-17T05:58:30.373Z,51.91
2022-12-17T06:01:17.163Z,51.72
2022-12-17T06:04:04.356Z,51.22
2022-12-17T06:06:50.473Z,51.26
2022-12-17T06:09:36.313Z,51.43
2022-12-17T06:12:29.996Z,51.06
2022-12-17T06:15:18.448Z,51.95
2022-12-17T06:18:16.430Z,52.01
2022-12-17T06:21:04.726Z,52.63
2022-12-17T06:23:50.485Z,52.64
2022-12-17T06:26:36.390Z,52.14
2022-12-17T06:29:22.083Z,52.29
2022-12-17T06:32:08.197Z,51.81
2022-12-17T06:34:53.828Z,52.45
2022-12-17T06:37:41.105Z,51.92
2022-12-17T06:40:29.190Z,51.60
2022-12-17T06:43:30.528Z,52.14
2022-12-17T06:46:16.456Z,51.60
2022-12-17T06:49:02.051Z,51.28
2022-12-17T06:51:47.889Z,51.48
2022-12-17T06:54:34.912Z,50.75
2022-12-17T06:57:20.639Z,50.65
2022-12-17T07:00:06.668Z,51.80
2022-12-17T07:02:52.439Z,51.41
2022-12-17T07:05:38.257Z,51.82
2022-12-17T07:08:24.384Z,52.10
2022-12-17T07:11:11.695Z,52.30
2022-12-17T07:13:57.428Z,52.07
2022-12-17T07:16:43.321Z,52.31
2022-12-17T07:19:29.309Z,52.98
2022-12-17T07:22:15.458Z,52.36
2022-12-17T07:25:01.441Z,52.51
2022-12-17T07:27:48.673Z,52.55
2022-12-17T07:30:42.940Z,52.79
2022-12-17T07:33:29.350Z,53.35
2022-12-17T07:36:15.372Z,52.78
2022-12-17T07:39:01.174Z,52.80
2022-12-17T07:41:46.866Z,53.04
2022-12-17T07:44:34.421Z,53.38
2022-12-17T07:47:19.911Z,53.86
2022-12-17T07:50:05.861Z,54.37
2022-12-17T07:52:51.404Z,55.01
2022-12-17T07:55:37.196Z,54.88
2022-12-17T07:58:26.283Z,55.50
2022-12-17T08:01:13.626Z,55.35
2022-12-17T08:03:59.307Z,56.14
2022-12-17T08:07:01.649Z,56.49
2022-12-17T08:09:49.907Z,56.88
2022-12-17T08:12:47.168Z,57.36
2022-12-17T08:15:32.966Z,57.95
2022-12-17T08:18:26.136Z,58.58
2022-12-17T08:21:12.603Z,59.13
2022-12-17T08:23:54.573Z,59.39
2022-12-17T08:26:44.301Z,59.30
2022-12-17T08:29:33.179Z,59.11
2022-12-17T08:32:19.058Z,59.16
2022-12-17T08:35:06.280Z,59.20
2022-12-17T08:37:52.175Z,59.50
2022-12-17T08:40:38.111Z,59.29
2022-12-17T08:43:23.827Z,60.02
2022-12-17T08:46:10.543Z,59.80
2022-12-17T08:48:57.195Z,59.84
2022-12-17T08:51:44.748Z,59.73
2022-12-17T08:54:30.338Z,59.13
2022-12-17T08:57:27.088Z,59.61
2022-12-17T09:00:16.910Z,59.55
2022-12-17T09:03:02.894Z,60.16
2022-12-17T09:05:49.621Z,60.03
2022-12-17T09:08:36.734Z,59.62
2022-12-17T09:11:22.795Z,60.01
2022-12-17T09:14:08.751Z,59.62
2022-12-17T09:17:09.206Z,59.60
2022-12-17T09:19:55.036Z,59.67
2022-12-17T09:22:40.605Z,59.36
2022-12-17T09:25:27.807Z,59.26
2022-12-17T09:28:13.722Z,59.57
2022-12-17T09:30:59.502Z,59.24
2022-12-17T09:33:56.778Z,59.12
2022-12-17T09:36:46.557Z,58.78
2022-12-17T09:39:35.412Z,58.90
2022-12-17T09:42:49.692Z,58.73
2022-12-17T09:45:42.114Z,59.30
2022-12-17T09:48:37.386Z,59.49
2022-12-17T09:51:24.012Z,59.47
2022-12-17T09:54:10.751Z,59.37
2022-12-17T09:57:01.916Z,59.09
2022-12-17T09:59:54.275Z,59.54
2022-12-17T10:02:44.960Z,59.45
2022-12-17T10:05:37.928Z,58.48
2022-12-17T10:08:26.010Z,59.12
2022-12-17T10:11:13.543Z,59.81
2022-12-17T10:13:59.105Z,59.80
2022-12-17T10:16:49.539Z,59.77
2022-12-17T10:19:43.976Z,60.32
2022-12-17T10:22:32.780Z,59.83
2022-12-17T10:25:21.795Z,59.16
2022-12-17T10:28:07.536Z,60.26
2022-12-17T10:30:53.436Z,60.10
2022-12-17T10:33:40.670Z,60.46
2022-12-17T10:36:40.737Z,60.32
2022-12-17T10:39:35.460Z,59.94
2022-12-17T10:42:21.361Z,60.24
2022-12-17T10:45:07.628Z,60.50
2022-12-17T10:47:53.754Z,59.97
2022-12-17T10:50:42.539Z,60.00
2022-12-17T10:53:39.271Z,59.24
2022-12-17T10:56:25.511Z,59.32
2022-12-17T10:59:12.565Z,59.23
2022-12-17T11:02:00.474Z,58.79
2022-12-17T11:04:49.492Z,58.93
2022-12-17T11:07:43.268Z,58.92
2022-12-17T11:10:37.271Z,59.04
2022-12-17T11:13:27.897Z,59.14
2022-12-17T11:16:16.877Z,57.84
2022-12-17T11:19:10.872Z,58.26
2022-12-17T11:22:02.573Z,58.22
2022-12-17T11:24:57.227Z,58.81
2022-12-17T11:27:52.373Z,58.26
2022-12-17T11:30:38.530Z,58.48
2022-12-17T11:33:34.941Z,58.07
2022-12-17T11:36:38.424Z,57.39
2022-12-17T11:39:34.288Z,58.37
2022-12-17T11:42:33.702Z,58.78
2022-12-17T11:45:29.665Z,58.35
2022-12-17T11:48:24.508Z,57.87
2022-12-17T11:51:16.375Z,57.58
2022-12-17T11:54:15.629Z,59.01
2022-12-17T11:57:08.149Z,58.69
2022-12-17T12:00:14.042Z,58.06
2022-12-17T12:03:11.718Z,58.63
2022-12-17T12:06:08.081Z,58.50
2022-12-17T12:08:58.486Z,58.20
2022-12-17T12:11:53.409Z,58.51
2022-12-17T12:14:54.053Z,58.52
2022-12-17T12:17:57.445Z,57.75
2022-12-17T12:21:16.341Z,58.73
2022-12-17T12:24:18.473Z,58.15
2022-12-17T12:27:17.430Z,58.42
2022-12-17T12:30:18.439Z,58.82
2022-12-17T12:33:17.323Z,57.77
2022-12-17T12:36:03.546Z,59.53
2022-12-17T12:38:56.036Z,59.26
2022-12-17T12:42:03.579Z,58.95
2022-12-17T12:44:57.112Z,58.58
2022-12-17T12:47:49.718Z,59.18
2022-12-17T12:50:44.900Z,58.53
2022-12-17T12:53:32.206Z,58.65
2022-12-17T12:56:17.796Z,58.26
2022-12-17T12:59:03.229Z,57.26
2022-12-17T13:01:54.525Z,57.38
2022-12-17T13:04:54.756Z,56.61
2022-12-17T13:07:30.156Z,57.15
2022-12-17T13:10:00.109Z,57.72
2022-12-17T13:12:35.910Z,57.86
2022-12-17T13:15:35.985Z,57.95
2022-12-17T13:18:20.425Z,57.43
2022-12-17T13:21:00.889Z,57.13
2022-12-17T13:23:35.086Z,57.98
2022-12-17T13:26:19.865Z,57.62
2022-12-17T13:29:11.373Z,56.97
2022-12-17T13:31:59.575Z,57.51
2022-12-17T13:34:36.022Z,57.74
2022-12-17T13:37:11.906Z,56.82
2022-12-17T13:39:52.908Z,56.95
2022-12-17T13:42:28.909Z,57.38
2022-12-17T13:44:58.412Z,58.65
2022-12-17T13:47:30.533Z,57.98
2022-12-17T13:50:32.804Z,57.98
2022-12-17T13:52:52.987Z,57.18
2022-12-17T13:55:25.373Z,57.12
2022-12-17T13:57:55.122Z,57.16
2022-12-17T14:00:27.655Z,57.55
2022-12-17T14:02:56.708Z,57.46
2022-12-17T14:05:28.451Z,57.83
2022-12-17T14:08:00.468Z,57.46
2022-12-17T14:10:31.498Z,56.92
2022-12-17T14:13:07.102Z,57.17
2022-12-17T14:15:39.090Z,56.85
2022-12-17T14:18:12.093Z,57.88
2022-12-17T14:20:41.966Z,56.56
2022-12-17T14:23:20.048Z,57.59
2022-12-17T14:25:49.934Z,57.22
2022-12-17T14:28:25.609Z,56.61
2022-12-17T14:31:26.086Z,57.06
2022-12-17T14:34:07.415Z,56.95
2022-12-17T14:36:38.707Z,56.76
2022-12-17T14:39:18.298Z,57.29
2022-12-17T14:42:09.220Z,56.73
2022-12-17T14:44:50.301Z,57.73
2022-12-17T14:47:22.356Z,56.79
2022-12-17T14:50:06.279Z,57.04
2022-12-17T14:52:42.298Z,56.98
2022-12-17T14:55:26.576Z,57.35
2022-12-17T14:58:21.011Z,57.87
2022-12-17T15:00:53.913Z,57.77
2022-12-17T15:03:26.584Z,57.41
2022-12-17T15:05:59.991Z,57.31
2022-12-17T15:08:33.360Z,57.02
2022-12-17T15:11:01.794Z,57.72
2022-12-17T15:13:31.386Z,57.22
2022-12-17T15:15:59.717Z,57.12
2022-12-17T15:18:28.762Z,57.95
2022-12-17T15:20:56.856Z,57.93
2022-12-17T15:23:26.271Z,56.63
2022-12-17T15:25:55.763Z,56.14
2022-12-17T15:28:24.810Z,55.97
2022-12-17T15:30:54.473Z,56.37
2022-12-17T15:33:22.892Z,55.87
2022-12-17T15:35:51.030Z,56.46
2022-12-17T15:38:19.084Z,56.31
2022-12-17T15:40:47.315Z,56.20
2022-12-17T15:43:15.908Z,56.40
2022-12-17T15:45:46.884Z,56.17
2022-12-17T15:48:19.365Z,55.89
2022-12-17T15:50:48.439Z,55.23
2022-12-17T15:53:17.592Z,55.08
2022-12-17T15:55:45.664Z,55.70
2022-12-17T15:58:13.960Z,54.67
2022-12-17T16:00:42.066Z,55.67
2022-12-17T16:03:10.260Z,55.62
2022-12-17T16:05:39.826Z,55.90
2022-12-17T16:08:07.905Z,54.97
2022-12-17T16:10:35.957Z,54.39
2022-12-17T16:13:04.085Z,55.39
2022-12-17T16:15:32.606Z,55.26
2022-12-17T16:18:00.966Z,54.42
2022-12-17T16:20:29.182Z,54.91
2022-12-17T16:22:58.618Z,56.09
2022-12-17T16:25:26.840Z,55.35
2022-12-17T16:27:55.076Z,55.72
2022-12-17T16:30:23.144Z,55.25
2022-12-17T16:32:51.231Z,55.37
2022-12-17T16:35:19.451Z,55.48
2022-12-17T16:37:47.560Z,55.31
2022-12-17T16:40:18.131Z,54.98
2022-12-17T16:42:46.624Z,55.45
2022-12-17T16:45:14.719Z,55.26
2022-12-17T16:47:42.853Z,55.51
2022-12-17T16:50:11.009Z,55.05
2022-12-17T16:52:39.222Z,55.19
2022-12-17T16:55:08.020Z,54.85
2022-12-17T16:57:37.608Z,55.19
2022-12-17T17:00:07.026Z,54.24
2022-12-17T17:02:35.254Z,55.30
2022-12-17T17:05:03.505Z,54.31
2022-12-17T17:07:31.669Z,54.40
2022-12-17T17:09:59.732Z,54.68
2022-12-17T17:12:27.889Z,54.93
2022-12-17T17:14:57.525Z,54.89
2022-12-17T17:17:53.864Z,54.57
2022-12-17T17:20:14.261Z,55.06
2022-12-17T17:22:42.685Z,54.18
2022-12-17T17:25:10.883Z,55.06
2022-12-17T17:27:39.083Z,54.34
2022-12-17T17:30:10.651Z,54.91
2022-12-17T17:32:38.734Z,55.20
2022-12-17T17:35:07.984Z,54.63
2022-12-17T17:37:36.132Z,54.44
2022-12-17T17:40:04.428Z,54.34
2022-12-17T17:42:32.481Z,54.23
2022-12-17T17:45:00.589Z,54.24
2022-12-17T17:47:31.719Z,54.78
2022-12-17T17:49:59.802Z,54.70
2022-12-17T17:52:27.827Z,54.04
2022-12-17T17:54:55.878Z,54.56
2022-12-17T17:57:23.921Z,54.93
2022-12-17T17:59:51.997Z,54.40
2022-12-17T18:02:20.161Z,54.16
2022-12-17T18:04:49.709Z,54.44
2022-12-17T18:07:28.357Z,54.26
2022-12-17T18:09:57.057Z,54.71
2022-12-17T18:12:42.851Z,54.32
2022-12-17T18:15:14.849Z,53.38
2022-12-17T18:17:44.787Z,54.41
2022-12-17T18:20:14.927Z,54.66
2022-12-17T18:22:43.285Z,54.08
2022-12-17T18:25:11.400Z,54.12
2022-12-17T18:27:39.616Z,54.05
2022-12-17T18:30:09.145Z,54.38
2022-12-17T18:32:37.422Z,53.39
2022-12-17T18:35:06.473Z,53.28
2022-12-17T18:37:35.871Z,53.50
2022-12-17T18:40:04.829Z,54.17
2022-12-17T18:42:50.557Z,53.60
2022-12-17T18:45:18.713Z,53.08
2022-12-17T18:47:46.824Z,53.16
2022-12-17T18:50:14.911Z,52.97
2022-12-17T18:52:44.320Z,52.86
2022-12-17T18:55:12.574Z,52.90
2022-12-17T18:57:40.649Z,52.81
2022-12-17T19:00:10.737Z,53.21
2022-12-17T19:02:39.492Z,53.69
2022-12-17T19:05:08.615Z,53.37
2022-12-17T19:07:36.742Z,52.97
2022-12-17T19:10:07.753Z,53.16
2022-12-17T19:12:36.016Z,53.41
2022-12-17T19:15:04.351Z,53.19
2022-12-17T19:17:32.456Z,53.23
2022-12-17T19:20:00.567Z,53.23
2022-12-17T19:22:28.738Z,53.34
2022-12-17T19:24:56.802Z,53.21
2022-12-17T19:27:26.294Z,52.81
2022-12-17T19:29:56.405Z,53.09
2022-12-17T19:32:24.802Z,52.77
2022-12-17T19:34:52.912Z,52.11
2022-12-17T19:37:21.054Z,53.12
2022-12-17T19:39:49.215Z,52.40
2022-12-17T19:42:25.367Z,52.63
2022-12-17T19:44:55.508Z,52.97
2022-12-17T19:47:25.111Z,53.33
2022-12-17T19:49:53.242Z,53.44
2022-12-17T19:52:21.335Z,53.06
2022-12-17T19:54:49.846Z,53.11
2022-12-17T19:57:17.957Z,53.09
2022-12-17T19:59:46.032Z,52.89
2022-12-17T20:02:17.267Z,52.67
2022-12-17T20:04:45.542Z,52.43
2022-12-17T20:07:13.631Z,52.72
2022-12-17T20:09:44.559Z,52.93
2022-12-17T20:12:12.775Z,53.41
2022-12-17T20:14:40.912Z,53.04
2022-12-17T20:17:09.048Z,52.62
2022-12-17T20:19:38.691Z,52.66
2022-12-17T20:22:07.537Z,52.93
2022-12-17T20:24:37.163Z,52.67
2022-12-17T20:27:05.841Z,52.22
2022-12-17T20:29:33.993Z,52.68
2022-12-17T20:32:02.116Z,52.51
2022-12-17T20:34:30.276Z,52.97
2022-12-17T20:36:59.732Z,52.63
2022-12-17T20:39:28.409Z,52.80
2022-12-17T20:41:57.852Z,52.62
2022-12-17T20:44:26.244Z,52.72
2022-12-17T20:46:54.429Z,52.14
2022-12-17T20:49:22.521Z,52.10
2022-12-17T20:51:50.581Z,52.50
2022-12-17T20:54:20.067Z,52.21
2022-12-17T20:56:48.200Z,52.82
2022-12-17T20:59:19.009Z,52.65
2022-12-17T21:01:51.633Z,52.85
2022-12-17T21:04:24.283Z,52.48
2022-12-17T21:06:52.946Z,52.22
2022-12-17T21:09:22.808Z,52.35
2022-12-17T21:11:51.128Z,53.04
2022-12-17T21:14:20.465Z,52.90
2022-12-17T21:16:48.819Z,52.60
2022-12-17T21:19:20.134Z,52.54
2022-12-17T21:21:48.916Z,53.40
2022-12-17T21:24:17.226Z,52.86
2022-12-17T21:26:47.947Z,52.88
2022-12-17T21:29:17.228Z,53.19
2022-12-17T21:31:47.382Z,53.34
2022-12-17T21:34:18.625Z,53.13
2022-12-17T21:36:46.743Z,53.18
2022-12-17T21:39:16.822Z,52.78
2022-12-17T21:42:07.890Z,53.23
2022-12-17T21:44:36.087Z,52.74
2022-12-17T21:47:04.604Z,52.85
2022-12-17T21:49:32.829Z,52.88
2022-12-17T21:52:02.118Z,52.58
2022-12-17T21:54:30.497Z,52.29
2022-12-17T21:56:59.939Z,52.05
2022-12-17T21:59:28.072Z,52.08
2022-12-17T22:01:57.273Z,51.96
2022-12-17T22:04:26.678Z,51.71
2022-12-17T22:06:56.506Z,51.99
2022-12-17T22:09:35.845Z,52.50
2022-12-17T22:12:33.111Z,52.27
2022-12-17T22:15:01.313Z,52.59
2022-12-17T22:17:29.887Z,53.43
2022-12-17T22:19:57.927Z,53.28
2022-12-17T22:22:25.999Z,52.81
2022-12-17T22:24:57.067Z,52.26
2022-12-17T22:27:26.612Z,52.64
2022-12-17T22:30:12.388Z,52.41
2022-12-17T22:32:57.883Z,52.65
2022-12-17T22:37:06.413Z,52.71
2022-12-17T22:41:57.983Z,52.30
2022-12-17T22:44:28.539Z,52.08
2022-12-17T22:44:42.077Z,51.60
2022-12-17T22:46:48.311Z,52.35
2022-12-17T22:49:17.393Z,52.36
2022-12-17T22:51:45.736Z,52.29
2022-12-17T22:54:14.810Z,52.18
2022-12-17T22:57:35.402Z,52.60
2022-12-17T22:59:34.294Z,52.54
2022-12-17T23:02:04.595Z,52.62
2022-12-17T23:04:32.724Z,52.15
2022-12-17T23:07:00.856Z,51.57
2022-12-17T23:09:28.915Z,52.54
2022-12-17T23:11:57.040Z,50.79
2022-12-17T23:14:25.086Z,49.02
2022-12-17T23:16:54.495Z,48.04
2022-12-17T23:19:23.066Z,47.46
2022-12-17T23:21:51.124Z,47.53
2022-12-17T23:24:19.193Z,47.42
2022-12-17T23:26:47.532Z,48.36
2022-12-17T23:29:19.379Z,49.15
2022-12-17T23:31:48.495Z,49.14
2022-12-17T23:34:18.193Z,49.47
2022-12-17T23:36:46.255Z,49.86
2022-12-17T23:39:14.402Z,49.97
2022-12-17T23:41:42.497Z,50.63
2022-12-17T23:44:10.605Z,50.37
2022-12-17T23:46:38.754Z,50.56
2022-12-17T23:49:08.342Z,50.75
2022-12-17T23:51:37.766Z,50.67
2022-12-17T23:54:06.306Z,50.34
2022-12-17T23:56:35.299Z,50.94
2022-12-17T23:59:03.911Z,51.44
